Time;durP1;ratioP1;P1;durP2;ratioP2;P2;SDS_P1;SDS_P2;PMS_P1;PMS_P2;Temp;Humidity;BMP_temperature;BMP_pressure;BME280_temperature;BME280_humidity;BME280_pressure;Samples;Min_cycle;Max_cycle;Signal;HPM_P1;HPM_P2
2022/12/20 00:02:24;;;;;;;31.08;14.00;;;;;;;-0.59;68.50;96910.97;5021390;28;20070;-82
2022/12/20 00:04:49;;;;;;;34.35;15.18;;;;;;;-0.47;68.95;96925.31;5004113;28;20505;-84
2022/12/20 00:07:15;;;;;;;30.10;13.57;;;;;;;-0.80;68.57;96871.53;5021722;28;20432;-82
2022/12/20 00:09:40;;;;;;;26.27;13.02;;;;;;;0.30;68.20;97043.19;5016007;28;20540;-82
2022/12/20 00:12:06;;;;;;;27.55;12.05;;;;;;;-0.27;68.55;96930.19;5015771;28;20125;-82
2022/12/20 00:14:31;;;;;;;30.98;13.18;;;;;;;0.32;67.95;97015.09;5017440;28;20042;-84
2022/12/20 00:16:56;;;;;;;35.90;14.68;;;;;;;0.62;67.87;97068.41;5016721;28;20127;-82
2022/12/20 00:19:22;;;;;;;29.55;13.45;;;;;;;0.06;67.32;96980.56;5016494;28;20068;-83
2022/12/20 00:21:47;;;;;;;36.08;13.15;;;;;;;0.01;67.01;96965.38;5017650;28;20125;-82
2022/12/20 00:24:13;;;;;;;25.45;12.20;;;;;;;0.71;66.48;97076.09;5017644;28;20050;-82
2022/12/20 00:26:38;;;;;;;28.45;13.27;;;;;;;0.57;66.50;97050.66;5015962;28;20116;-82
2022/12/20 00:29:05;;;;;;;29.48;13.55;;;;;;;-0.10;66.30;96948.28;5016282;28;20109;-82
2022/12/20 00:31:31;;;;;;;25.75;11.52;;;;;;;0.31;66.41;97013.47;5016248;28;20443;-83
2022/12/20 00:33:57;;;;;;;29.40;11.60;;;;;;;0.08;66.28;96991.66;5017956;28;20042;-83
2022/12/20 00:36:26;;;;;;;24.95;12.73;;;;;;;0.04;66.08;96967.69;5000286;28;20049;-82
2022/12/20 00:38:54;;;;;;;23.23;10.82;;;;;;;0.68;65.57;97073.81;5017753;28;20045;-83
2022/12/20 00:41:22;;;;;;;26.15;12.23;;;;;;;0.48;65.58;97046.41;5034741;28;20099;-82
2022/12/20 00:43:48;;;;;;;25.23;11.02;;;;;;;0.58;65.78;97046.25;4996090;28;20042;-82
2022/12/20 00:46:16;;;;;;;24.65;11.30;;;;;;;-0.03;65.58;96962.31;5018693;28;20056;-82
2022/12/20 00:48:42;;;;;;;20.58;9.73;;;;;;;0.29;64.94;97026.72;5028140;28;20104;-83
2022/12/20 00:51:12;;;;;;;25.60;11.13;;;;;;;-0.11;65.70;96982.34;5005355;28;20491;-82
2022/12/20 00:53:39;;;;;;;19.87;10.47;;;;;;;0.10;65.29;96989.69;5009048;28;20042;-83
2022/12/20 00:56:06;;;;;;;27.52;10.68;;;;;;;0.53;64.99;97065.03;4995095;28;20289;-83
2022/12/20 00:58:33;;;;;;;20.35;10.55;;;;;;;0.16;65.28;97042.03;5005762;28;20046;-83
2022/12/20 01:00:59;;;;;;;20.35;10.50;;;;;;;-0.06;65.31;96983.50;5017425;28;20037;-85
2022/12/20 01:03:25;;;;;;;27.75;10.77;;;;;;;-0.06;65.01;96975.66;5027023;28;20111;-84
2022/12/20 01:05:55;;;;;;;24.42;10.82;;;;;;;0.56;64.91;97067.28;5002689;28;20046;-84
2022/12/20 01:08:21;;;;;;;24.80;10.55;;;;;;;0.55;65.01;97068.25;4994391;28;20046;-84
2022/12/20 01:11:00;;;;;;;22.38;12.05;;;;;;;0.20;64.93;97027.69;5012675;28;20045;-84
2022/12/20 01:13:26;;;;;;;20.15;9.30;;;;;;;0.20;64.80;97014.63;5013082;28;20076;-85
2022/12/20 01:15:51;;;;;;;25.40;10.82;;;;;;;-0.26;64.53;96937.88;5015231;28;20092;-86
2022/12/20 01:18:17;;;;;;;21.80;10.35;;;;;;;0.05;64.38;96969.31;5018105;28;20119;-86
2022/12/20 01:20:42;;;;;;;27.88;11.68;;;;;;;0.14;64.17;96986.59;5016720;28;20044;-85
2022/12/20 01:23:09;;;;;;;24.63;10.88;;;;;;;0.49;64.34;97035.00;5018010;28;20476;-86
2022/12/20 01:25:35;;;;;;;23.95;10.25;;;;;;;-0.60;64.63;96885.06;5011762;28;20451;-84
2022/12/20 01:28:00;;;;;;;24.40;10.23;;;;;;;-0.05;64.20;96971.25;5017411;28;20041;-84
2022/12/20 01:30:25;;;;;;;19.60;10.35;;;;;;;0.27;64.42;97026.03;5002967;28;20501;-84
2022/12/20 01:32:51;;;;;;;23.75;11.25;;;;;;;-0.13;64.73;96946.00;4986892;28;20060;-85
2022/12/20 01:35:16;;;;;;;23.58;10.70;;;;;;;-0.16;64.40;96937.72;4999251;28;20049;-85
2022/12/20 01:37:42;;;;;;;25.75;10.75;;;;;;;-0.15;64.28;96927.09;5016097;28;20129;-85
2022/12/20 01:40:09;;;;;;;26.83;10.85;;;;;;;-0.64;64.43;96887.19;4999238;28;20057;-87
2022/12/20 01:42:35;;;;;;;25.35;11.00;;;;;;;0.18;64.08;97010.56;5015979;28;20045;-85
2022/12/20 01:45:00;;;;;;;24.73;10.88;;;;;;;0.07;63.99;96967.38;5016256;28;20050;-85
2022/12/20 01:47:31;;;;;;;20.00;9.63;;;;;;;0.42;64.31;97028.00;5017108;28;20038;-85
2022/12/20 01:50:01;;;;;;;21.77;9.73;;;;;;;0.37;64.52;97031.91;5032933;28;20497;-85
2022/12/20 01:52:42;;;;;;;22.98;9.70;;;;;;;-0.17;64.28;96972.59;5024218;28;20443;-83
2022/12/20 01:55:25;;;;;;;21.75;9.77;;;;;;;-0.11;64.94;96971.94;5011221;28;20155;-84
2022/12/20 01:58:00;;;;;;;19.70;9.88;;;;;;;-0.72;64.68;96884.56;5015948;28;20064;-85
2022/12/20 02:00:26;;;;;;;21.77;9.77;;;;;;;0.06;64.35;96972.75;5008736;28;20129;-84
2022/12/20 02:02:54;;;;;;;21.75;10.52;;;;;;;0.06;64.29;96962.31;5000022;28;20085;-84
2022/12/20 02:05:22;;;;;;;19.10;9.43;;;;;;;-0.24;64.56;96941.13;4978652;28;20034;-84
2022/12/20 02:07:51;;;;;;;22.58;10.32;;;;;;;-0.58;63.95;96868.28;5008808;28;20038;-84
2022/12/20 02:10:19;;;;;;;22.27;10.45;;;;;;;-1.05;63.89;96776.13;5010973;28;20034;-84
2022/12/20 02:12:47;;;;;;;21.40;9.65;;;;;;;0.37;63.51;97007.63;4993112;28;20037;-84
2022/12/20 02:15:37;;;;;;;22.60;10.00;;;;;;;0.04;63.71;96967.69;4993120;28;20053;-84
2022/12/20 02:18:12;;;;;;;19.70;10.05;;;;;;;-0.48;63.37;96886.38;5016676;28;20074;-84
2022/12/20 02:20:59;;;;;;;25.92;10.63;;;;;;;0.13;64.31;97008.44;5003180;28;20052;-84
2022/12/20 02:24:06;;;;;;;21.88;10.60;;;;;;;-0.06;64.36;97006.97;4992741;28;20049;-84
2022/12/20 02:26:55;;;;;;;23.67;10.35;;;;;;;-0.15;64.73;97015.75;5000694;28;20103;-84
2022/12/20 02:29:23;;;;;;;21.50;10.25;;;;;;;0.06;64.28;97010.06;5008730;28;20073;-84
2022/12/20 02:31:59;;;;;;;23.30;9.80;;;;;;;-0.02;64.03;97004.84;5010626;28;20041;-84
2022/12/20 02:34:26;;;;;;;19.02;9.77;;;;;;;0.02;64.49;97010.56;5008457;28;20436;-84
2022/12/20 02:36:51;;;;;;;20.75;9.60;;;;;;;-0.12;65.09;97005.00;5008989;28;20056;-85
2022/12/20 02:39:17;;;;;;;21.13;10.13;;;;;;;-0.74;64.93;96946.44;5008811;28;20046;-84
2022/12/20 02:41:54;;;;;;;26.92;10.88;;;;;;;-0.63;64.96;96937.50;4992767;28;20031;-84
2022/12/20 02:47:17;;;;;;;23.02;10.50;;;;;;;-0.81;64.53;96893.34;5014125;28;20057;-83
2022/12/20 02:49:45;;;;;;;23.13;10.35;;;;;;;0.00;64.06;96998.47;4999411;28;20034;-83
2022/12/20 02:52:14;;;;;;;23.35;9.73;;;;;;;-0.47;64.27;96906.25;5021339;28;20041;-83
2022/12/20 02:54:40;;;;;;;19.20;9.82;;;;;;;-0.49;64.27;96913.41;5017163;28;20108;-84
2022/12/20 02:57:24;;;;;;;25.83;10.85;;;;;;;-1.05;65.75;96869.88;5021207;28;20419;-85
2022/12/20 03:00:14;;;;;;;24.65;10.68;;;;;;;-0.17;65.65;96991.66;5025143;28;20034;-83
2022/12/20 03:05:27;;;;;;;21.00;11.13;;;;;;;-0.50;65.40;96927.41;4997103;28;20081;-83
2022/12/20 03:07:52;;;;;;;23.90;11.35;;;;;;;-0.65;65.81;96923.81;5014687;28;20092;-83
2022/12/20 03:10:19;;;;;;;26.25;11.25;;;;;;;-1.11;66.00;96865.31;5019374;28;20404;-82
2022/12/20 03:12:45;;;;;;;25.63;12.18;;;;;;;-0.43;66.73;96994.38;5018433;28;20065;-82
2022/12/20 03:15:10;;;;;;;30.67;11.65;;;;;;;-0.41;66.79;96982.00;5000840;28;20077;-82
2022/12/20 03:17:36;;;;;;;23.30;11.32;;;;;;;-1.34;66.47;96826.03;5018274;28;20073;-82
2022/12/20 03:20:05;;;;;;;29.15;12.43;;;;;;;-1.32;66.24;96861.34;5020831;28;20049;-82
2022/12/20 03:22:31;;;;;;;27.85;12.20;;;;;;;-1.18;66.57;96854.72;5001633;28;20048;-83
2022/12/20 03:24:57;;;;;;;27.13;11.90;;;;;;;-0.60;66.64;96952.81;5020363;28;20034;-84
2022/12/20 03:27:22;;;;;;;27.35;12.23;;;;;;;-0.90;66.57;96899.53;5019586;28;20042;-82
2022/12/20 03:29:48;;;;;;;27.25;12.73;;;;;;;-0.69;66.34;96920.75;5000816;28;20648;-83
2022/12/20 03:32:13;;;;;;;25.60;12.48;;;;;;;-1.02;65.83;96852.16;5000028;28;20420;-83
2022/12/20 03:34:38;;;;;;;26.17;11.52;;;;;;;-1.44;65.72;96796.72;5000529;28;20109;-83
2022/12/20 03:37:04;;;;;;;27.05;12.38;;;;;;;-0.89;65.59;96873.31;5018704;28;20117;-83
2022/12/20 03:39:29;;;;;;;26.17;12.00;;;;;;;-2.54;65.47;96605.34;5000961;28;20038;-83
2022/12/20 03:41:55;;;;;;;25.02;12.32;;;;;;;-1.03;65.42;96863.53;5018170;28;20397;-83
2022/12/20 03:44:20;;;;;;;26.08;12.52;;;;;;;-0.46;65.44;96942.56;5021097;28;20045;-83
2022/12/20 03:46:45;;;;;;;28.10;13.02;;;;;;;-1.48;65.13;96778.03;5036465;28;20034;-83
2022/12/20 03:49:11;;;;;;;29.63;12.93;;;;;;;-1.08;65.23;96831.97;5031531;28;20116;-83
2022/12/20 03:51:36;;;;;;;29.80;12.23;;;;;;;-1.02;64.69;96833.91;5021686;28;20033;-83
2022/12/20 03:54:02;;;;;;;24.60;12.18;;;;;;;-1.29;64.60;96806.38;5012562;28;20053;-83
2022/12/20 03:56:27;;;;;;;29.33;14.05;;;;;;;-0.35;64.91;96944.06;5013621;28;20101;-83
2022/12/20 03:58:52;;;;;;;24.75;12.30;;;;;;;-0.27;65.15;96966.69;4996669;28;20466;-83
2022/12/20 04:01:23;;;;;;;32.72;13.45;;;;;;;-0.38;64.60;96952.19;5024239;28;20073;-83
2022/12/20 04:03:49;;;;;;;28.80;12.70;;;;;;;-0.62;64.74;96903.50;5018028;28;20503;-83
2022/12/20 04:06:16;;;;;;;31.17;13.20;;;;;;;-1.26;64.49;96837.28;5016688;28;20806;-83
2022/12/20 04:08:41;;;;;;;25.95;11.88;;;;;;;-0.28;64.80;96970.28;5015899;28;20045;-83
2022/12/20 04:11:16;;;;;;;24.67;12.10;;;;;;;-1.17;64.46;96812.91;4998895;28;20421;-83
2022/12/20 04:13:47;;;;;;;25.92;12.45;;;;;;;-0.53;64.25;96915.53;5019239;28;20361;-83
2022/12/20 04:16:15;;;;;;;30.70;13.13;;;;;;;-0.42;64.79;96928.25;5020129;28;20048;-83
2022/12/20 04:18:41;;;;;;;25.20;13.02;;;;;;;-0.74;64.78;96883.09;5031686;28;20041;-83
2022/12/20 04:21:07;;;;;;;32.78;15.27;;;;;;;-0.48;64.59;96915.06;5017374;28;20038;-83
2022/12/20 04:23:34;;;;;;;31.23;13.68;;;;;;;-0.24;64.73;96955.97;5027024;28;20102;-83
2022/12/20 04:26:00;;;;;;;28.73;13.75;;;;;;;-0.26;64.70;96966.53;5025286;28;20057;-83
2022/12/20 04:28:26;;;;;;;28.83;13.00;;;;;;;-0.72;64.66;96881.97;5024628;28;20078;-83
2022/12/20 04:30:52;;;;;;;28.85;14.02;;;;;;;-0.49;64.27;96916.03;5023947;28;20038;-84
2022/12/20 04:33:17;;;;;;;27.48;13.60;;;;;;;-1.52;64.72;96792.31;5007534;28;20193;-84
2022/12/20 04:35:43;;;;;;;29.05;12.80;;;;;;;-1.37;64.69;96808.94;5003966;28;20133;-82
2022/12/20 04:38:08;;;;;;;32.22;13.18;;;;;;;-1.24;64.56;96818.91;5017868;28;20070;-82
2022/12/20 04:40:33;;;;;;;30.80;13.70;;;;;;;-1.09;64.62;96830.34;5032345;28;20041;-82
2022/12/20 04:42:59;;;;;;;27.88;13.38;;;;;;;-0.88;64.64;96855.91;5020184;28;20188;-82
2022/12/20 04:45:24;;;;;;;30.75;12.85;;;;;;;-0.34;64.29;96960.50;5017004;28;20117;-82
2022/12/20 04:47:50;;;;;;;36.65;14.88;;;;;;;-0.59;64.54;96918.78;5035539;28;20049;-82
2022/12/20 04:50:15;;;;;;;33.92;13.75;;;;;;;-0.66;64.69;96909.97;5017708;28;20548;-82
2022/12/20 04:55:24;;;;;;;29.98;13.52;;;;;;;-1.36;64.11;96781.13;5012820;28;20049;-82
2022/12/20 04:57:50;;;;;;;29.75;13.63;;;;;;;-0.48;64.51;96930.69;5018794;28;20460;-82
2022/12/20 05:00:16;;;;;;;36.35;13.55;;;;;;;-0.60;64.20;96919.75;5018914;28;20037;-82
2022/12/20 05:02:41;;;;;;;35.15;14.82;;;;;;;-1.39;64.45;96797.91;5010217;28;20069;-82
2022/12/20 05:05:07;;;;;;;34.03;14.90;;;;;;;-1.27;64.72;96812.22;4997697;28;20046;-82
2022/12/20 05:07:32;;;;;;;28.90;13.20;;;;;;;-0.97;64.53;96838.63;5012307;28;20157;-83
2022/12/20 05:09:58;;;;;;;31.27;13.18;;;;;;;-1.11;64.69;96847.91;4998732;28;20034;-82
2022/12/20 05:12:23;;;;;;;26.20;13.38;;;;;;;-1.11;64.67;96840.09;5013886;28;20582;-82
2022/12/20 05:14:48;;;;;;;31.13;13.32;;;;;;;-1.40;64.81;96788.47;5015869;28;20456;-82
2022/12/20 05:17:14;;;;;;;30.35;14.40;;;;;;;-0.97;64.86;96859.47;5005301;28;20097;-83
2022/12/20 05:19:39;;;;;;;37.65;17.48;;;;;;;-1.07;64.61;96849.22;5009040;28;20045;-84
2022/12/20 05:27:33;;;;;;;32.97;14.88;;;;;;;-1.24;64.52;96837.13;5009448;28;20044;-84
2022/12/20 05:29:58;;;;;;;32.22;14.77;;;;;;;-1.19;64.67;96837.47;4994696;28;20037;-83
2022/12/20 05:32:24;;;;;;;34.83;16.33;;;;;;;-0.49;64.87;96953.34;4990764;28;20131;-83
2022/12/20 05:34:49;;;;;;;27.42;14.27;;;;;;;-1.73;64.10;96751.16;5012533;28;20048;-83
2022/12/20 05:37:15;;;;;;;30.90;14.85;;;;;;;-1.59;64.29;96767.91;5009370;28;20046;-83
2022/12/20 05:39:40;;;;;;;32.00;14.13;;;;;;;-0.87;64.57;96891.41;4996177;28;20049;-83
2022/12/20 05:42:05;;;;;;;30.38;14.70;;;;;;;-1.19;64.36;96855.69;4994415;28;20269;-83
2022/12/20 05:44:31;;;;;;;27.98;12.73;;;;;;;-1.25;64.72;96845.91;4990612;28;20065;-83
2022/12/20 05:46:56;;;;;;;32.80;14.93;;;;;;;-1.32;64.48;96844.94;5016076;28;20045;-83
2022/12/20 05:49:22;;;;;;;31.83;13.85;;;;;;;-1.02;64.75;96895.59;5012436;28;20037;-83
2022/12/20 05:51:47;;;;;;;28.55;13.88;;;;;;;-2.02;65.40;96763.72;5010985;28;20037;-83
2022/12/20 05:54:12;;;;;;;31.20;14.00;;;;;;;-1.43;65.09;96838.22;4995833;28;20042;-82
2022/12/20 05:56:38;;;;;;;38.03;13.82;;;;;;;-0.60;64.97;96963.22;5003345;28;20077;-83
2022/12/20 05:59:03;;;;;;;32.33;14.10;;;;;;;-1.41;64.45;96814.63;5003599;28;20057;-83
2022/12/20 06:01:29;;;;;;;33.67;15.10;;;;;;;-1.24;64.71;96863.16;4989078;28;20034;-82
2022/12/20 06:03:55;;;;;;;33.65;13.82;;;;;;;-1.56;64.95;96802.25;5011426;28;20068;-82
2022/12/20 06:06:20;;;;;;;27.13;14.20;;;;;;;-1.67;64.69;96796.50;5009427;28;20034;-83
2022/12/20 06:08:46;;;;;;;32.00;14.32;;;;;;;-0.68;65.29;96966.63;5013295;28;20589;-83
2022/12/20 06:11:12;;;;;;;36.25;13.77;;;;;;;-1.43;64.77;96871.22;5013211;28;20105;-84
2022/12/20 06:13:41;;;;;;;30.77;14.20;;;;;;;-0.66;64.94;96959.50;5007533;28;20072;-86
2022/12/20 06:16:07;;;;;;;28.63;13.43;;;;;;;-1.22;65.13;96872.44;4990140;28;20097;-83
2022/12/20 06:18:32;;;;;;;28.33;13.57;;;;;;;-1.27;64.99;96864.28;4982788;28;20045;-84
2022/12/20 06:20:57;;;;;;;29.95;14.00;;;;;;;-1.48;64.82;96824.88;4978175;28;20133;-84
2022/12/20 06:23:23;;;;;;;39.17;16.10;;;;;;;-1.81;64.55;96760.72;4983987;28;20038;-84
2022/12/20 06:25:49;;;;;;;33.22;13.70;;;;;;;-0.79;64.80;96925.28;5004889;28;20038;-85
2022/12/20 06:28:20;;;;;;;31.25;14.30;;;;;;;-1.11;64.51;96863.50;5008096;28;20435;-84
2022/12/20 06:30:56;;;;;;;31.85;15.75;;;;;;;-1.29;64.52;96842.00;4998670;28;20042;-84
2022/12/20 06:33:23;;;;;;;32.47;15.98;;;;;;;-1.20;64.73;96852.25;5002126;28;20054;-84
2022/12/20 06:35:49;;;;;;;34.75;14.32;;;;;;;-0.76;64.49;96924.94;4984745;28;20083;-85
2022/12/20 06:38:15;;;;;;;35.78;15.63;;;;;;;-1.14;64.54;96858.63;4996995;28;20139;-85
2022/12/20 06:40:40;;;;;;;38.25;16.63;;;;;;;-0.47;64.47;96964.41;5005491;28;20537;-84
2022/12/20 06:43:05;;;;;;;36.92;15.77;;;;;;;-3.07;64.20;96561.50;5003672;28;20110;-85
2022/12/20 06:45:31;;;;;;;35.92;16.10;;;;;;;-2.94;64.60;96600.00;4998301;28;20048;-84
2022/12/20 06:47:57;;;;;;;39.85;16.30;;;;;;;-2.52;64.65;96652.78;5000613;28;20045;-83
2022/12/20 06:50:23;;;;;;;32.33;15.27;;;;;;;-0.85;64.29;96912.91;4996718;28;20108;-84
2022/12/20 06:52:48;;;;;;;33.20;15.35;;;;;;;-1.45;64.58;96819.34;5006825;28;20124;-83
2022/12/20 06:55:13;;;;;;;34.17;16.13;;;;;;;-0.69;64.26;96917.31;4997602;28;20096;-83
2022/12/20 06:57:39;;;;;;;34.25;14.85;;;;;;;-1.10;64.19;96867.75;5003713;28;20045;-82
2022/12/20 07:00:07;;;;;;;30.05;14.85;;;;;;;-2.19;64.20;96674.47;4983703;28;20045;-83
2022/12/20 07:02:32;;;;;;;29.02;14.13;;;;;;;-1.46;63.96;96789.09;5007519;28;20109;-84
2022/12/20 07:04:58;;;;;;;28.00;13.35;;;;;;;-1.45;64.10;96782.91;5008465;28;20821;-85
2022/12/20 07:07:23;;;;;;;36.15;15.80;;;;;;;-0.55;64.09;96925.31;5009680;28;20117;-85
2022/12/20 07:09:49;;;;;;;32.08;14.10;;;;;;;-0.85;63.52;96885.06;5010661;28;20038;-87
2022/12/20 07:12:14;;;;;;;35.20;15.20;;;;;;;-0.71;63.44;96881.00;5003053;28;20042;-87
2022/12/20 07:14:40;;;;;;;34.47;14.95;;;;;;;-1.17;63.94;96825.09;4983560;28;20094;-83
2022/12/20 07:17:06;;;;;;;34.97;14.52;;;;;;;-0.81;63.80;96875.13;4987084;28;20116;-83
2022/12/20 07:19:34;;;;;;;29.35;14.32;;;;;;;-1.07;63.97;96823.19;5005190;28;21691;-82
2022/12/20 07:22:00;;;;;;;29.98;15.43;;;;;;;-1.04;63.41;96825.44;4993803;28;20048;-84
2022/12/20 07:24:25;;;;;;;42.40;16.98;;;;;;;-0.39;63.25;96911.47;5003704;28;20046;-84
2022/12/20 07:26:51;;;;;;;29.77;15.07;;;;;;;-0.62;63.29;96877.44;5006219;28;20041;-84
2022/12/20 07:29:16;;;;;;;29.52;14.07;;;;;;;-0.19;63.22;96936.22;5001331;28;21419;-83
2022/12/20 07:31:42;;;;;;;26.08;13.65;;;;;;;-1.46;63.15;96744.88;5006216;28;20119;-84
2022/12/20 07:34:07;;;;;;;31.48;13.95;;;;;;;-1.33;63.26;96757.41;4982050;28;20454;-85
2022/12/20 07:36:33;;;;;;;37.85;16.33;;;;;;;-0.56;63.17;96878.56;4961831;28;20054;-83
2022/12/20 07:38:58;;;;;;;37.22;16.73;;;;;;;-1.24;62.86;96753.84;4985433;28;20041;-85
2022/12/20 07:41:24;;;;;;;31.38;14.35;;;;;;;-1.11;62.93;96764.56;4969592;28;20046;-83
2022/12/20 07:43:50;;;;;;;27.48;13.25;;;;;;;-1.01;62.72;96793.06;4980458;28;20038;-83
2022/12/20 07:46:16;;;;;;;36.22;13.88;;;;;;;-0.13;62.04;96951.22;4978559;28;20633;-83
2022/12/20 07:48:43;;;;;;;38.60;15.00;;;;;;;-0.65;62.14;96856.06;4962285;28;20058;-83
2022/12/20 07:51:14;;;;;;;29.90;14.13;;;;;;;-1.08;62.89;96828.53;4982824;28;20039;-87
2022/12/20 07:53:44;;;;;;;32.25;13.70;;;;;;;-1.24;62.33;96753.84;4965090;28;20046;-87
2022/12/20 07:56:11;;;;;;;34.95;14.90;;;;;;;-0.84;62.43;96824.16;4980180;28;20057;-87
2022/12/20 07:58:39;;;;;;;34.13;14.38;;;;;;;-0.61;61.73;96833.94;4967874;28;20161;-83
2022/12/20 08:01:26;;;;;;;34.13;13.82;;;;;;;-0.52;62.15;96867.63;4978802;28;20050;-87
2022/12/20 08:04:00;;;;;;;27.30;11.98;;;;;;;-0.73;61.70;96824.81;4968143;28;20038;-84
2022/12/20 08:06:39;;;;;;;;;;;;;;;;;;;;;
2022/12/20 08:09:06;;;;;;;28.60;12.45;;;;;;;-1.98;61.71;96599.44;4969832;28;20057;-84
2022/12/20 08:11:35;;;;;;;28.42;13.45;;;;;;;-1.52;61.26;96670.03;4951700;28;20066;-84
2022/12/20 08:14:02;;;;;;;25.65;12.40;;;;;;;-1.56;61.22;96698.19;4953453;28;20437;-85
2022/12/20 08:16:27;;;;;;;26.38;10.60;;;;;;;-1.80;61.31;96659.13;4970084;28;20050;-84
2022/12/20 08:18:52;;;;;;;26.17;11.73;;;;;;;-2.95;61.42;96473.75;4968260;28;20105;-86
2022/12/20 08:21:18;;;;;;;31.42;11.07;;;;;;;-3.01;61.18;96470.03;4967600;28;20580;-85
2022/12/20 08:23:43;;;;;;;25.38;11.88;;;;;;;-0.18;61.90;96905.75;4968242;28;20046;-85
2022/12/20 08:26:09;;;;;;;31.10;11.90;;;;;;;-0.89;61.41;96784.75;4974110;28;20067;-86
2022/12/20 08:28:34;;;;;;;26.50;12.55;;;;;;;0.11;61.21;96910.44;4957713;28;20053;-86
2022/12/20 08:31:05;;;;;;;26.73;12.10;;;;;;;-2.30;61.18;96537.06;4976421;28;20083;-83
2022/12/20 08:33:32;;;;;;;24.13;11.55;;;;;;;-0.09;61.04;96881.31;4982998;28;20215;-86
2022/12/20 08:35:59;;;;;;;29.30;12.48;;;;;;;-0.65;61.28;96785.72;4995215;28;20047;-85
2022/12/20 08:38:29;;;;;;;27.38;13.02;;;;;;;-0.25;61.13;96823.97;5008164;28;20049;-84
2022/12/20 08:41:16;;;;;;;41.60;15.07;;;;;;;0.10;60.78;96900.97;4992793;28;20111;-85
2022/12/20 08:43:42;;;;;;;25.05;11.23;;;;;;;-0.87;60.51;96745.53;5006365;28;20350;-85
2022/12/20 08:46:09;;;;;;;25.70;12.00;;;;;;;-0.99;60.52;96732.00;4995602;28;20041;-83
2022/12/20 08:48:35;;;;;;;23.02;10.73;;;;;;;-0.07;60.25;96856.66;5003600;28;20042;-84
2022/12/20 08:51:05;;;;;;;26.88;12.10;;;;;;;0.33;59.95;96891.47;4994169;28;20117;-86
2022/12/20 08:53:33;;;;;;;32.83;12.45;;;;;;;-0.42;60.16;96794.50;4994867;28;20485;-87
2022/12/20 08:56:04;;;;;;;26.52;12.93;;;;;;;-0.03;59.43;96818.03;4990394;28;20054;-85
2022/12/20 08:58:29;;;;;;;29.77;11.65;;;;;;;0.48;59.86;96902.03;4999378;28;20042;-84
2022/12/20 09:00:59;;;;;;;26.80;11.52;;;;;;;-1.41;59.83;96627.28;5013191;28;20044;-84
2022/12/20 09:03:25;;;;;;;23.92;11.77;;;;;;;-2.69;60.03;96430.34;5013202;28;20104;-83
2022/12/20 09:05:50;;;;;;;27.40;11.07;;;;;;;-0.13;59.71;96792.13;5009413;28;20049;-84
2022/12/20 09:08:16;;;;;;;25.17;11.07;;;;;;;-0.17;59.49;96771.78;4995659;28;20038;-83
2022/12/20 09:10:42;;;;;;;29.05;11.95;;;;;;;-0.49;59.46;96708.34;5002346;28;20041;-83
2022/12/20 09:13:08;;;;;;;29.83;11.75;;;;;;;0.52;59.40;96854.53;4997925;28;20109;-83
2022/12/20 09:15:35;;;;;;;24.23;10.60;;;;;;;0.60;59.04;96867.56;5001611;28;20038;-83
2022/12/20 09:18:00;;;;;;;31.58;11.18;;;;;;;0.69;58.68;96868.31;4996561;28;20041;-83
2022/12/20 09:20:26;;;;;;;31.25;10.90;;;;;;;-0.20;58.23;96749.47;4992886;28;20087;-83
2022/12/20 09:22:52;;;;;;;21.67;10.88;;;;;;;0.47;58.55;96856.81;5011348;28;20049;-83
2022/12/20 09:25:17;;;;;;;23.95;12.02;;;;;;;0.70;58.69;96862.94;4998487;28;20046;-83
2022/12/20 09:27:43;;;;;;;27.10;11.77;;;;;;;0.18;58.48;96765.28;4999336;28;20076;-83
2022/12/20 09:30:10;;;;;;;21.67;10.07;;;;;;;0.26;58.01;96762.66;5015523;28;20033;-82
2022/12/20 09:32:36;;;;;;;25.30;12.07;;;;;;;0.46;57.65;96776.09;5006093;28;21421;-83
2022/12/20 09:35:02;;;;;;;22.35;9.90;;;;;;;0.06;56.97;96711.88;5005644;28;20689;-81
2022/12/20 09:37:30;;;;;;;31.75;11.98;;;;;;;0.87;56.66;96836.72;5003810;28;20080;-83
2022/12/20 09:39:56;;;;;;;25.23;12.02;;;;;;;0.14;56.22;96725.69;5008827;28;20100;-83
2022/12/20 09:42:26;;;;;;;22.55;9.95;;;;;;;0.59;55.79;96792.00;5007604;28;20105;-82
2022/12/20 09:44:57;;;;;;;24.17;10.13;;;;;;;0.33;55.14;96745.31;4990273;28;20165;-85
2022/12/20 09:47:25;;;;;;;22.95;9.95;;;;;;;0.65;55.86;96788.72;4992671;28;20053;-84
2022/12/20 09:49:58;;;;;;;28.75;11.48;;;;;;;0.82;55.61;96807.72;5016507;28;20041;-85
2022/12/20 09:52:32;;;;;;;28.23;10.57;;;;;;;1.09;55.70;96828.91;4988528;28;20045;-82
2022/12/20 09:55:17;;;;;;;25.08;11.77;;;;;;;1.05;55.03;96824.22;4984240;28;20112;-83
2022/12/20 09:57:50;;;;;;;26.23;11.45;;;;;;;1.13;54.95;96809.28;5004314;28;20462;-83
2022/12/20 10:00:18;;;;;;;24.02;11.20;;;;;;;1.05;55.72;96791.06;5009807;28;20566;-81
2022/12/20 10:02:44;;;;;;;24.38;11.07;;;;;;;0.69;55.00;96720.28;5003245;28;20138;-84
2022/12/20 10:05:24;;;;;;;22.73;10.23;;;;;;;1.37;54.30;96797.84;4986456;28;20046;-83
2022/12/20 10:08:00;;;;;;;23.52;10.25;;;;;;;1.46;53.74;96785.47;5003054;28;20045;-83
2022/12/20 10:10:25;;;;;;;28.33;10.93;;;;;;;1.53;53.81;96786.38;4989637;28;20097;-84
2022/12/20 10:13:19;;;;;;;21.65;10.32;;;;;;;1.68;54.01;96784.59;5006126;28;20936;-83
2022/12/20 10:15:59;;;;;;;24.40;10.50;;;;;;;2.24;53.51;96780.56;5000964;28;20056;-82
2022/12/20 10:18:29;;;;;;;19.65;9.32;;;;;;;2.75;50.29;96758.81;5004392;28;20403;-82
2022/12/20 10:21:06;;;;;;;26.58;10.68;;;;;;;2.99;49.38;96664.06;5005931;28;20057;-85
2022/12/20 10:23:50;;;;;;;23.42;10.15;;;;;;;4.07;47.88;96743.06;4995195;28;20052;-83
2022/12/20 10:26:16;;;;;;;18.60;9.75;;;;;;;4.14;46.67;96611.81;5013897;28;20050;-83
2022/12/20 10:28:42;;;;;;;17.38;8.57;;;;;;;4.72;44.91;96646.28;5009563;28;20449;-84
2022/12/20 10:31:15;;;;;;;19.88;9.88;;;;;;;4.78;43.71;96575.31;4985459;28;20569;-85
2022/12/20 10:33:42;;;;;;;22.13;9.45;;;;;;;5.26;42.62;96635.56;5002554;28;20065;-84
2022/12/20 10:36:26;;;;;;;22.45;9.30;;;;;;;5.98;43.18;96710.94;4989761;28;20056;-85
2022/12/20 10:38:57;;;;;;;24.27;9.55;;;;;;;4.97;41.95;96536.88;4990807;28;20160;-82
2022/12/20 10:41:32;;;;;;;28.90;11.15;;;;;;;6.01;42.56;96681.56;4989632;28;20081;-82
2022/12/20 10:44:15;;;;;;;17.75;10.00;;;;;;;6.13;42.87;96696.50;5001092;28;20084;-85
2022/12/20 10:46:41;;;;;;;18.70;9.85;;;;;;;6.30;41.67;96688.94;5006934;28;20044;-83
2022/12/20 10:49:32;;;;;;;23.02;9.57;;;;;;;6.07;42.23;96683.38;4997587;28;20602;-82
2022/12/20 10:52:02;;;;;;;20.67;10.52;;;;;;;5.28;42.46;96515.94;4998638;28;20069;-83
2022/12/20 10:54:34;;;;;;;18.13;9.18;;;;;;;6.14;42.90;96671.78;4981905;28;20185;-83
2022/12/20 10:57:23;;;;;;;19.10;9.95;;;;;;;5.39;42.38;96573.19;4988636;28;20038;-85
2022/12/20 10:59:51;;;;;;;20.02;9.85;;;;;;;6.00;41.88;96666.78;5003859;28;20036;-83
2022/12/20 11:02:39;;;;;;;30.20;11.43;;;;;;;5.66;41.41;96608.13;5003448;28;20065;-83
2022/12/20 11:05:11;;;;;;;24.00;8.90;;;;;;;5.56;43.12;96670.13;5003299;28;20052;-84
2022/12/20 11:07:51;;;;;;;21.30;9.38;;;;;;;5.87;42.69;96662.34;4996144;28;20042;-83
2022/12/20 11:10:23;;;;;;;21.92;10.20;;;;;;;5.15;43.19;96596.72;4996853;28;20041;-83
2022/12/20 11:12:57;;;;;;;19.48;8.77;;;;;;;5.80;42.67;96659.72;5006918;28;20436;-83
2022/12/20 11:15:26;;;;;;;19.20;8.73;;;;;;;4.99;42.33;96526.97;5003483;28;20050;-85
2022/12/20 11:18:00;;;;;;;24.27;8.50;;;;;;;5.78;42.82;96656.50;4983740;28;20119;-82
2022/12/20 11:20:28;;;;;;;14.95;8.07;;;;;;;5.61;43.04;96636.91;4992580;28;20258;-82
2022/12/20 11:23:21;;;;;;;21.75;9.27;;;;;;;5.54;43.41;96637.94;5000775;28;20045;-84
2022/12/20 11:26:16;;;;;;;17.58;7.65;;;;;;;5.60;42.97;96637.91;4996999;28;20054;-84
2022/12/20 11:28:57;;;;;;;22.67;8.48;;;;;;;5.64;42.27;96625.16;4973919;28;20045;-82
2022/12/20 11:31:48;;;;;;;15.73;7.85;;;;;;;4.00;42.36;96381.78;4983523;28;20124;-84
2022/12/20 11:34:17;;;;;;;;;;;;;;;5.42;42.14;96630.66;4986235;28;20188;-81
2022/12/20 11:36:57;;;;;;;19.65;10.02;;;;;;;5.50;42.21;96620.91;4999843;28;20326;-82
2022/12/20 11:39:37;;;;;;;18.13;8.20;;;;;;;5.11;42.49;96588.41;4994706;28;20117;-80
2022/12/20 11:42:30;;;;;;;26.70;8.88;;;;;;;5.19;43.26;96625.03;5002639;28;20106;-81
2022/12/20 11:45:21;;;;;;;17.98;8.55;;;;;;;5.33;42.68;96615.31;5001523;28;20046;-82